createdAt,value
2019-05-22T14:55:54.769Z,31.58
2019-05-22T14:58:29.351Z,31.45
2019-05-22T15:01:03.065Z,31.19
2019-05-22T15:03:37.242Z,31.41
2019-05-22T15:06:18.167Z,31.43
2019-05-22T15:08:50.724Z,31.68
2019-05-22T15:11:24.006Z,31.19
2019-05-22T15:13:57.433Z,31.47
2019-05-22T15:16:29.741Z,31.27
2019-05-22T15:19:03.287Z,30.98
2019-05-22T15:24:22.788Z,30.96
2019-05-22T15:26:55.119Z,30.89
2019-05-22T15:29:28.760Z,30.89
2019-05-22T15:32:01.103Z,31.11
2019-05-22T15:34:37.169Z,30.93
2019-05-22T15:37:11.594Z,30.83
2019-05-22T15:39:51.834Z,30.81
2019-05-22T15:42:26.327Z,30.89
2019-05-22T15:44:59.643Z,30.76
2019-05-22T15:54:09.493Z,30.67
2019-05-22T15:56:43.713Z,30.77
2019-05-22T15:59:16.628Z,30.66
2019-05-22T16:01:49.778Z,30.83
2019-05-22T16:04:24.496Z,30.68
2019-05-22T16:06:58.087Z,30.74
2019-05-22T16:09:32.345Z,30.69
2019-05-22T16:12:07.306Z,30.82
2019-05-22T16:14:41.254Z,30.79
2019-05-22T16:17:14.218Z,30.67
2019-05-22T16:19:48.463Z,31.04
2019-05-22T16:22:21.150Z,30.83
2019-05-22T16:24:59.182Z,30.91
2019-05-22T16:27:33.117Z,30.78
2019-05-22T16:30:07.358Z,30.91
2019-05-22T16:32:40.563Z,30.86
2019-05-22T16:35:14.227Z,30.88
2019-05-22T16:37:47.608Z,30.94
2019-05-22T16:40:22.250Z,30.83
2019-05-22T16:42:56.526Z,30.77
2019-05-22T16:45:31.656Z,30.71
2019-05-22T16:48:05.120Z,30.65
2019-05-22T16:50:45.618Z,30.68
2019-05-22T16:53:19.984Z,30.82
2019-05-22T16:55:53.270Z,30.75
2019-05-22T16:58:26.794Z,30.69
2019-05-22T17:00:59.853Z,30.76
2019-05-22T17:03:32.939Z,30.70
2019-05-22T17:06:06.565Z,30.68
2019-05-22T17:08:40.163Z,30.69
2019-05-22T17:11:14.480Z,30.65
2019-05-22T17:13:48.609Z,30.58
2019-05-22T17:16:22.442Z,30.64
2019-05-22T17:18:55.691Z,30.81
2019-05-22T17:21:29.023Z,30.69
2019-05-22T17:24:03.778Z,30.90
2019-05-22T17:26:37.937Z,30.78
2019-05-22T17:29:12.226Z,30.86
2019-05-22T17:31:46.062Z,30.79
2019-05-22T17:34:20.486Z,30.76
2019-05-22T17:36:54.434Z,30.72
2019-05-22T17:39:28.775Z,30.69
2019-05-22T17:42:04.889Z,30.87
2019-05-22T17:44:44.001Z,30.71
2019-05-22T17:47:18.855Z,30.70
2019-05-22T17:49:52.415Z,30.65
2019-05-22T17:52:25.627Z,30.59
2019-05-22T17:54:58.215Z,30.78
2019-05-22T17:57:31.639Z,30.75
2019-05-22T18:00:05.824Z,30.60
2019-05-22T18:02:40.350Z,30.63
2019-05-22T18:05:13.211Z,30.53
2019-05-22T18:07:45.977Z,30.58
2019-05-22T18:10:22.248Z,30.69
2019-05-22T18:12:56.037Z,30.71
2019-05-22T18:15:32.170Z,30.79
2019-05-22T18:18:05.699Z,30.73
2019-05-22T18:20:43.351Z,30.68
2019-05-22T18:23:13.977Z,30.80
2019-05-22T18:25:47.621Z,30.84
2019-05-22T18:28:21.022Z,30.71
2019-05-22T18:30:53.758Z,30.69
2019-05-22T18:33:26.992Z,30.73
2019-05-22T18:36:01.435Z,30.80
2019-05-22T18:38:34.225Z,30.78
2019-05-22T18:41:10.158Z,30.88
2019-05-22T18:43:44.328Z,30.75
2019-05-22T18:46:18.859Z,30.83
2019-05-22T18:48:51.953Z,30.79
2019-05-22T18:51:25.105Z,30.87
2019-05-22T18:53:59.254Z,30.91
2019-05-22T18:56:33.099Z,30.89
2019-05-22T18:59:05.852Z,31.00
2019-05-22T19:01:39.032Z,30.79
2019-05-22T19:04:12.145Z,31.04
2019-05-22T19:06:44.967Z,30.87
2019-05-22T19:09:18.516Z,31.01
2019-05-22T19:11:51.343Z,30.99
2019-05-22T19:14:24.297Z,30.81
2019-05-22T19:17:01.221Z,30.82
2019-05-22T19:19:34.179Z,30.67
2019-05-22T19:22:08.518Z,30.76
2019-05-22T19:24:41.619Z,30.57
2019-05-22T19:27:21.313Z,30.56
2019-05-22T19:30:01.061Z,30.55
2019-05-22T19:32:41.677Z,30.56
2019-05-22T19:35:15.728Z,30.76
2019-05-22T19:37:49.612Z,30.63
2019-05-22T19:40:22.955Z,30.67
2019-05-22T19:42:55.944Z,30.52
2019-05-22T19:45:31.025Z,30.72
2019-05-22T19:48:04.410Z,30.70
2019-05-22T19:50:38.235Z,30.87
2019-05-22T19:53:18.930Z,30.82
2019-05-22T19:55:47.087Z,30.77
2019-05-22T19:58:21.931Z,30.89
2019-05-22T20:00:55.098Z,30.72
2019-05-22T20:03:28.469Z,31.00
2019-05-22T20:06:02.065Z,30.87
2019-05-22T20:08:36.554Z,31.05
2019-05-22T20:11:09.136Z,30.93
2019-05-22T20:13:41.613Z,30.90
2019-05-22T20:16:15.174Z,31.07
2019-05-22T20:18:47.499Z,30.79
2019-05-22T20:21:21.048Z,30.82
2019-05-22T20:23:54.471Z,30.76
2019-05-22T20:26:27.877Z,30.92
2019-05-22T20:29:01.009Z,30.76
2019-05-22T20:31:34.034Z,30.83
2019-05-22T20:34:06.305Z,30.76
2019-05-22T20:36:39.293Z,30.65
2019-05-22T20:39:17.442Z,30.56
2019-05-22T20:41:50.571Z,30.58
2019-05-22T20:44:24.152Z,30.80
2019-05-22T20:46:57.473Z,30.73
2019-05-22T20:49:30.112Z,30.86
2019-05-22T20:52:04.418Z,30.88
2019-05-22T20:54:37.633Z,30.79
2019-05-22T20:57:09.945Z,30.96
2019-05-22T20:59:43.674Z,30.72
2019-05-22T21:02:17.206Z,30.80
2019-05-22T21:04:51.838Z,30.67
2019-05-22T21:07:27.003Z,30.51
2019-05-22T21:10:00.132Z,30.51
2019-05-22T21:12:36.034Z,30.63
2019-05-22T21:15:09.710Z,30.96
2019-05-22T21:17:45.517Z,30.71
2019-05-22T21:20:19.781Z,30.93
2019-05-22T21:22:53.686Z,30.72
2019-05-22T21:25:26.658Z,30.90
2019-05-22T21:27:59.372Z,30.79
2019-05-22T21:30:33.468Z,30.84
2019-05-22T21:33:07.082Z,30.72
2019-05-22T21:35:40.154Z,30.54
2019-05-22T21:38:20.728Z,30.90
2019-05-22T21:40:53.029Z,30.70
2019-05-22T21:43:27.148Z,30.89
2019-05-22T21:46:00.166Z,30.72
2019-05-22T21:48:33.581Z,30.88
2019-05-22T21:51:05.881Z,30.84
2019-05-22T21:53:38.394Z,30.68
2019-05-22T21:56:12.571Z,30.62
2019-05-22T21:58:45.615Z,30.46
2019-05-22T22:01:27.870Z,30.74
2019-05-22T22:04:03.625Z,30.57
2019-05-22T22:06:36.253Z,30.77
2019-05-22T22:09:10.129Z,30.78
2019-05-22T22:11:43.155Z,30.75
2019-05-22T22:14:17.748Z,30.97
2019-05-22T22:16:51.141Z,30.65
2019-05-22T22:19:26.983Z,30.52
2019-05-22T22:22:05.868Z,30.44
2019-05-22T22:24:45.019Z,30.28
2019-05-22T22:27:17.706Z,30.40
2019-05-22T22:29:51.836Z,30.30
2019-05-22T22:35:17.897Z,30.32
2019-05-22T22:37:51.229Z,30.11
2019-05-22T22:40:25.910Z,30.04
2019-05-22T22:42:58.703Z,30.33
